sensor_id;sensor_type;location;lat;lon;timestamp;P1;durP1;ratioP1;P2;durP2;ratioP2
46607;SDS011;32330;51.936;7.184;2023-02-21T04:51:32;82.82;;;45.72;;
46607;SDS011;32330;51.936;7.184;2023-02-21T04:53:59;88.22;;;48.28;;
46607;SDS011;32330;51.936;7.184;2023-02-21T04:56:26;78.72;;;45.25;;
46607;SDS011;32330;51.936;7.184;2023-02-21T04:58:53;92.80;;;50.05;;
46607;SDS011;32330;51.936;7.184;2023-02-21T05:01:20;84.57;;;45.90;;
46607;SDS011;32330;51.936;7.184;2023-02-21T05:03:48;94.90;;;51.40;;
46607;SDS011;32330;51.936;7.184;2023-02-21T05:06:19;84.38;;;47.35;;
46607;SDS011;32330;51.936;7.184;2023-02-21T05:08:48;83.85;;;43.97;;
46607;SDS011;32330;51.936;7.184;2023-02-21T05:11:15;94.72;;;48.97;;
46607;SDS011;32330;51.936;7.184;2023-02-21T05:13:43;93.95;;;47.80;;
46607;SDS011;32330;51.936;7.184;2023-02-21T05:16:10;81.38;;;44.45;;
46607;SDS011;32330;51.936;7.184;2023-02-21T05:18:39;87.47;;;45.20;;
46607;SDS011;32330;51.936;7.184;2023-02-21T05:21:07;91.15;;;47.05;;
46607;SDS011;32330;51.936;7.184;2023-02-21T05:23:36;73.88;;;41.33;;
46607;SDS011;32330;51.936;7.184;2023-02-21T05:26:05;80.88;;;41.58;;
46607;SDS011;32330;51.936;7.184;2023-02-21T05:28:34;91.53;;;46.13;;
46607;SDS011;32330;51.936;7.184;2023-02-21T05:31:01;83.85;;;44.28;;
46607;SDS011;32330;51.936;7.184;2023-02-21T05:33:29;81.53;;;42.20;;
46607;SDS011;32330;51.936;7.184;2023-02-21T05:35:55;75.57;;;41.45;;
46607;SDS011;32330;51.936;7.184;2023-02-21T05:38:23;70.00;;;40.28;;
46607;SDS011;32330;51.936;7.184;2023-02-21T05:40:52;73.80;;;42.08;;
46607;SDS011;32330;51.936;7.184;2023-02-21T05:43:19;85.90;;;42.70;;
46607;SDS011;32330;51.936;7.184;2023-02-21T05:45:46;71.78;;;40.38;;
46607;SDS011;32330;51.936;7.184;2023-02-21T05:48:13;70.13;;;38.25;;
46607;SDS011;32330;51.936;7.184;2023-02-21T05:50:41;72.47;;;38.88;;
46607;SDS011;32330;51.936;7.184;2023-02-21T05:53:09;69.95;;;37.67;;
46607;SDS011;32330;51.936;7.184;2023-02-21T05:55:36;68.00;;;36.33;;
46607;SDS011;32330;51.936;7.184;2023-02-21T05:58:04;72.40;;;38.20;;
46607;SDS011;32330;51.936;7.184;2023-02-21T06:00:31;70.18;;;37.45;;
46607;SDS011;32330;51.936;7.184;2023-02-21T06:05:50;65.63;;;34.92;;
46607;SDS011;32330;51.936;7.184;2023-02-21T06:08:17;66.55;;;36.60;;
46607;SDS011;32330;51.936;7.184;2023-02-21T06:10:44;63.17;;;38.22;;
46607;SDS011;32330;51.936;7.184;2023-02-21T06:13:12;73.15;;;37.67;;
46607;SDS011;32330;51.936;7.184;2023-02-21T06:15:39;74.47;;;39.92;;
46607;SDS011;32330;51.936;7.184;2023-02-21T06:18:06;76.68;;;39.67;;
46607;SDS011;32330;51.936;7.184;2023-02-21T06:20:33;66.90;;;37.80;;
46607;SDS011;32330;51.936;7.184;2023-02-21T06:23:00;71.07;;;38.75;;
46607;SDS011;32330;51.936;7.184;2023-02-21T06:25:27;68.70;;;35.55;;
46607;SDS011;32330;51.936;7.184;2023-02-21T06:27:54;77.63;;;40.10;;
46607;SDS011;32330;51.936;7.184;2023-02-21T06:30:22;82.40;;;39.50;;
46607;SDS011;32330;51.936;7.184;2023-02-21T06:32:49;79.95;;;40.47;;
46607;SDS011;32330;51.936;7.184;2023-02-21T06:35:16;80.75;;;41.15;;
46607;SDS011;32330;51.936;7.184;2023-02-21T06:37:43;92.93;;;45.00;;
46607;SDS011;32330;51.936;7.184;2023-02-21T06:40:10;73.90;;;39.72;;
46607;SDS011;32330;51.936;7.184;2023-02-21T06:42:37;89.45;;;43.13;;
46607;SDS011;32330;51.936;7.184;2023-02-21T06:45:04;89.72;;;42.55;;
46607;SDS011;32330;51.936;7.184;2023-02-21T06:47:33;86.80;;;40.63;;
46607;SDS011;32330;51.936;7.184;2023-02-21T06:50:00;91.43;;;41.88;;
46607;SDS011;32330;51.936;7.184;2023-02-21T06:52:28;92.35;;;41.95;;
46607;SDS011;32330;51.936;7.184;2023-02-21T06:54:56;83.25;;;40.63;;
46607;SDS011;32330;51.936;7.184;2023-02-21T06:57:23;90.13;;;42.67;;
46607;SDS011;32330;51.936;7.184;2023-02-21T06:59:49;99.47;;;42.60;;
46607;SDS011;32330;51.936;7.184;2023-02-21T07:02:17;91.55;;;43.25;;
46607;SDS011;32330;51.936;7.184;2023-02-21T07:04:46;85.25;;;40.83;;
46607;SDS011;32330;51.936;7.184;2023-02-21T07:07:14;94.93;;;43.03;;
46607;SDS011;32330;51.936;7.184;2023-02-21T07:09:42;86.38;;;40.88;;
46607;SDS011;32330;51.936;7.184;2023-02-21T07:12:08;100.05;;;42.55;;
46607;SDS011;32330;51.936;7.184;2023-02-21T07:14:35;108.60;;;45.42;;
46607;SDS011;32330;51.936;7.184;2023-02-21T07:17:02;104.20;;;41.25;;
46607;SDS011;32330;51.936;7.184;2023-02-21T07:19:30;105.90;;;43.22;;
46607;SDS011;32330;51.936;7.184;2023-02-21T07:21:58;114.72;;;44.67;;
46607;SDS011;32330;51.936;7.184;2023-02-21T07:24:25;91.45;;;41.58;;
46607;SDS011;32330;51.936;7.184;2023-02-21T07:26:52;131.98;;;47.35;;
46607;SDS011;32330;51.936;7.184;2023-02-21T07:29:20;96.78;;;43.55;;
46607;SDS011;32330;51.936;7.184;2023-02-21T07:31:46;111.18;;;42.53;;
46607;SDS011;32330;51.936;7.184;2023-02-21T07:34:13;115.43;;;43.53;;
46607;SDS011;32330;51.936;7.184;2023-02-21T07:36:41;122.38;;;47.42;;
46607;SDS011;32330;51.936;7.184;2023-02-21T07:39:10;118.53;;;45.17;;
46607;SDS011;32330;51.936;7.184;2023-02-21T07:41:38;95.88;;;39.15;;
46607;SDS011;32330;51.936;7.184;2023-02-21T07:44:08;111.20;;;42.30;;
46607;SDS011;32330;51.936;7.184;2023-02-21T07:46:37;107.47;;;42.97;;
46607;SDS011;32330;51.936;7.184;2023-02-21T07:49:07;130.63;;;43.22;;
46607;SDS011;32330;51.936;7.184;2023-02-21T07:51:34;96.97;;;42.08;;
46607;SDS011;32330;51.936;7.184;2023-02-21T07:54:01;112.22;;;42.58;;
46607;SDS011;32330;51.936;7.184;2023-02-21T07:56:29;115.95;;;44.63;;
46607;SDS011;32330;51.936;7.184;2023-02-21T07:58:56;99.25;;;42.20;;
46607;SDS011;32330;51.936;7.184;2023-02-21T08:01:24;132.00;;;47.20;;
46607;SDS011;32330;51.936;7.184;2023-02-21T08:03:52;106.53;;;42.15;;
46607;SDS011;32330;51.936;7.184;2023-02-21T08:06:19;93.05;;;39.20;;
46607;SDS011;32330;51.936;7.184;2023-02-21T08:08:46;87.28;;;38.42;;
46607;SDS011;32330;51.936;7.184;2023-02-21T08:11:13;104.30;;;42.05;;
46607;SDS011;32330;51.936;7.184;2023-02-21T08:13:41;118.97;;;43.72;;
46607;SDS011;32330;51.936;7.184;2023-02-21T08:16:08;92.05;;;42.05;;
46607;SDS011;32330;51.936;7.184;2023-02-21T08:18:35;105.70;;;39.95;;
46607;SDS011;32330;51.936;7.184;2023-02-21T08:21:02;112.65;;;42.08;;
46607;SDS011;32330;51.936;7.184;2023-02-21T08:23:33;102.97;;;41.57;;
46607;SDS011;32330;51.936;7.184;2023-02-21T08:26:01;112.53;;;41.35;;
46607;SDS011;32330;51.936;7.184;2023-02-21T08:28:28;112.40;;;43.03;;
46607;SDS011;32330;51.936;7.184;2023-02-21T08:30:57;117.50;;;41.85;;
46607;SDS011;32330;51.936;7.184;2023-02-21T08:33:24;107.05;;;39.97;;
46607;SDS011;32330;51.936;7.184;2023-02-21T08:35:51;112.43;;;42.95;;
46607;SDS011;32330;51.936;7.184;2023-02-21T08:38:18;106.80;;;41.33;;
46607;SDS011;32330;51.936;7.184;2023-02-21T08:40:45;107.60;;;41.53;;
46607;SDS011;32330;51.936;7.184;2023-02-21T08:43:12;108.18;;;41.95;;
46607;SDS011;32330;51.936;7.184;2023-02-21T08:45:39;136.85;;;44.17;;
46607;SDS011;32330;51.936;7.184;2023-02-21T08:48:07;100.22;;;40.97;;
46607;SDS011;32330;51.936;7.184;2023-02-21T08:50:34;93.85;;;38.80;;
46607;SDS011;32330;51.936;7.184;2023-02-21T08:53:01;93.43;;;39.25;;
46607;SDS011;32330;51.936;7.184;2023-02-21T08:55:28;103.78;;;39.92;;
46607;SDS011;32330;51.936;7.184;2023-02-21T08:57:55;98.93;;;41.35;;
46607;SDS011;32330;51.936;7.184;2023-02-21T09:00:23;96.93;;;40.00;;
46607;SDS011;32330;51.936;7.184;2023-02-21T09:02:52;92.07;;;40.15;;
46607;SDS011;32330;51.936;7.184;2023-02-21T09:05:23;79.75;;;35.40;;
46607;SDS011;32330;51.936;7.184;2023-02-21T09:07:53;84.22;;;37.45;;
46607;SDS011;32330;51.936;7.184;2023-02-21T09:10:23;90.80;;;37.83;;
46607;SDS011;32330;51.936;7.184;2023-02-21T09:12:51;84.95;;;37.95;;
46607;SDS011;32330;51.936;7.184;2023-02-21T09:15:18;88.50;;;39.83;;
46607;SDS011;32330;51.936;7.184;2023-02-21T09:17:45;93.53;;;40.38;;
46607;SDS011;32330;51.936;7.184;2023-02-21T09:20:14;95.45;;;40.33;;
46607;SDS011;32330;51.936;7.184;2023-02-21T09:22:44;85.60;;;37.90;;
46607;SDS011;32330;51.936;7.184;2023-02-21T09:25:12;84.18;;;35.95;;
46607;SDS011;32330;51.936;7.184;2023-02-21T09:27:39;78.40;;;36.70;;
46607;SDS011;32330;51.936;7.184;2023-02-21T09:30:07;80.65;;;36.53;;
46607;SDS011;32330;51.936;7.184;2023-02-21T09:32:36;72.22;;;34.13;;
46607;SDS011;32330;51.936;7.184;2023-02-21T09:35:04;73.07;;;35.80;;
46607;SDS011;32330;51.936;7.184;2023-02-21T09:37:32;80.22;;;36.25;;
46607;SDS011;32330;51.936;7.184;2023-02-21T09:40:03;76.88;;;33.63;;
46607;SDS011;32330;51.936;7.184;2023-02-21T09:42:33;74.03;;;33.97;;
46607;SDS011;32330;51.936;7.184;2023-02-21T09:45:00;80.13;;;33.40;;
46607;SDS011;32330;51.936;7.184;2023-02-21T09:47:28;77.38;;;34.65;;
46607;SDS011;32330;51.936;7.184;2023-02-21T09:49:59;67.43;;;32.97;;
46607;SDS011;32330;51.936;7.184;2023-02-21T09:52:30;75.60;;;33.60;;
46607;SDS011;32330;51.936;7.184;2023-02-21T09:54:59;67.05;;;30.80;;
46607;SDS011;32330;51.936;7.184;2023-02-21T09:57:31;77.53;;;34.88;;
46607;SDS011;32330;51.936;7.184;2023-02-21T09:59:58;70.03;;;32.45;;
46607;SDS011;32330;51.936;7.184;2023-02-21T10:02:31;66.10;;;30.67;;
46607;SDS011;32330;51.936;7.184;2023-02-21T10:05:13;66.68;;;31.33;;
46607;SDS011;32330;51.936;7.184;2023-02-21T10:07:49;71.80;;;30.27;;
46607;SDS011;32330;51.936;7.184;2023-02-21T10:10:24;59.28;;;29.27;;
46607;SDS011;32330;51.936;7.184;2023-02-21T10:12:58;68.88;;;31.65;;
46607;SDS011;32330;51.936;7.184;2023-02-21T10:15:35;63.40;;;30.50;;
46607;SDS011;32330;51.936;7.184;2023-02-21T10:18:07;61.08;;;29.52;;
46607;SDS011;32330;51.936;7.184;2023-02-21T10:20:46;57.03;;;28.60;;
46607;SDS011;32330;51.936;7.184;2023-02-21T10:23:18;60.53;;;29.10;;
46607;SDS011;32330;51.936;7.184;2023-02-21T10:25:47;62.75;;;29.75;;
46607;SDS011;32330;51.936;7.184;2023-02-21T10:28:23;57.80;;;28.30;;
46607;SDS011;32330;51.936;7.184;2023-02-21T10:30:51;57.42;;;27.73;;
46607;SDS011;32330;51.936;7.184;2023-02-21T10:33:22;60.88;;;28.38;;
46607;SDS011;32330;51.936;7.184;2023-02-21T10:35:49;51.05;;;25.48;;
46607;SDS011;32330;51.936;7.184;2023-02-21T10:38:19;46.30;;;23.55;;
46607;SDS011;32330;51.936;7.184;2023-02-21T10:43:20;43.63;;;21.75;;
46607;SDS011;32330;51.936;7.184;2023-02-21T10:45:55;47.55;;;21.17;;
46607;SDS011;32330;51.936;7.184;2023-02-21T10:48:29;31.73;;;17.45;;
46607;SDS011;32330;51.936;7.184;2023-02-21T10:51:05;35.53;;;18.00;;
46607;SDS011;32330;51.936;7.184;2023-02-21T10:53:34;33.60;;;18.73;;
46607;SDS011;32330;51.936;7.184;2023-02-21T10:58:52;31.75;;;17.10;;
46607;SDS011;32330;51.936;7.184;2023-02-21T11:01:29;29.38;;;15.95;;
46607;SDS011;32330;51.936;7.184;2023-02-21T11:03:59;27.90;;;15.52;;
46607;SDS011;32330;51.936;7.184;2023-02-21T11:06:33;23.83;;;14.10;;
46607;SDS011;32330;51.936;7.184;2023-02-21T11:09:22;29.58;;;15.60;;
46607;SDS011;32330;51.936;7.184;2023-02-21T11:11:59;21.55;;;12.80;;
46607;SDS011;32330;51.936;7.184;2023-02-21T11:14:29;25.17;;;14.27;;
46607;SDS011;32330;51.936;7.184;2023-02-21T11:19:45;22.60;;;13.32;;
46607;SDS011;32330;51.936;7.184;2023-02-21T11:22:15;25.83;;;16.43;;
46607;SDS011;32330;51.936;7.184;2023-02-21T11:24:46;20.17;;;12.80;;
46607;SDS011;32330;51.936;7.184;2023-02-21T11:27:20;19.85;;;12.02;;
46607;SDS011;32330;51.936;7.184;2023-02-21T11:29:49;22.45;;;13.48;;
46607;SDS011;32330;51.936;7.184;2023-02-21T11:32:20;19.38;;;12.15;;
46607;SDS011;32330;51.936;7.184;2023-02-21T11:34:58;17.55;;;11.05;;
46607;SDS011;32330;51.936;7.184;2023-02-21T11:37:30;21.55;;;12.85;;
46607;SDS011;32330;51.936;7.184;2023-02-21T11:39:58;20.85;;;13.18;;
46607;SDS011;32330;51.936;7.184;2023-02-21T11:42:27;19.90;;;12.57;;
46607;SDS011;32330;51.936;7.184;2023-02-21T11:47:51;18.27;;;11.88;;
46607;SDS011;32330;51.936;7.184;2023-02-21T11:50:23;19.95;;;12.52;;
46607;SDS011;32330;51.936;7.184;2023-02-21T11:52:53;19.02;;;11.82;;
46607;SDS011;32330;51.936;7.184;2023-02-21T11:55:25;19.75;;;12.55;;
46607;SDS011;32330;51.936;7.184;2023-02-21T11:58:06;23.10;;;12.95;;
46607;SDS011;32330;51.936;7.184;2023-02-21T12:00:44;17.90;;;12.45;;
46607;SDS011;32330;51.936;7.184;2023-02-21T12:03:35;21.63;;;13.05;;
46607;SDS011;32330;51.936;7.184;2023-02-21T12:06:16;30.38;;;21.50;;
46607;SDS011;32330;51.936;7.184;2023-02-21T12:08:52;20.48;;;13.98;;
46607;SDS011;32330;51.936;7.184;2023-02-21T12:11:27;25.33;;;14.65;;
46607;SDS011;32330;51.936;7.184;2023-02-21T12:14:07;19.10;;;11.88;;
46607;SDS011;32330;51.936;7.184;2023-02-21T12:16:45;20.42;;;11.90;;
46607;SDS011;32330;51.936;7.184;2023-02-21T12:19:27;19.13;;;11.10;;
46607;SDS011;32330;51.936;7.184;2023-02-21T12:22:07;17.83;;;12.00;;
46607;SDS011;32330;51.936;7.184;2023-02-21T12:24:48;20.73;;;12.30;;
46607;SDS011;32330;51.936;7.184;2023-02-21T12:27:22;19.23;;;12.88;;
46607;SDS011;32330;51.936;7.184;2023-02-21T12:30:03;16.10;;;11.35;;
46607;SDS011;32330;51.936;7.184;2023-02-21T12:32:47;18.92;;;12.02;;
46607;SDS011;32330;51.936;7.184;2023-02-21T12:38:28;19.70;;;13.38;;
46607;SDS011;32330;51.936;7.184;2023-02-21T12:41:03;19.95;;;13.60;;
46607;SDS011;32330;51.936;7.184;2023-02-21T12:43:40;19.70;;;12.50;;
46607;SDS011;32330;51.936;7.184;2023-02-21T12:46:17;19.38;;;13.07;;
46607;SDS011;32330;51.936;7.184;2023-02-21T12:48:50;16.77;;;12.18;;
46607;SDS011;32330;51.936;7.184;2023-02-21T12:51:24;22.63;;;14.35;;
46607;SDS011;32330;51.936;7.184;2023-02-21T12:53:56;18.50;;;13.25;;
46607;SDS011;32330;51.936;7.184;2023-02-21T12:56:27;17.48;;;13.80;;
46607;SDS011;32330;51.936;7.184;2023-02-21T12:58:58;22.23;;;13.65;;
46607;SDS011;32330;51.936;7.184;2023-02-21T13:01:30;18.40;;;13.10;;
46607;SDS011;32330;51.936;7.184;2023-02-21T13:04:05;19.73;;;13.60;;
46607;SDS011;32330;51.936;7.184;2023-02-21T13:06:41;19.17;;;14.32;;
46607;SDS011;32330;51.936;7.184;2023-02-21T13:09:14;21.65;;;16.40;;
46607;SDS011;32330;51.936;7.184;2023-02-21T13:11:49;27.50;;;20.13;;
46607;SDS011;32330;51.936;7.184;2023-02-21T13:14:22;21.80;;;14.88;;
46607;SDS011;32330;51.936;7.184;2023-02-21T13:16:52;31.05;;;21.65;;
46607;SDS011;32330;51.936;7.184;2023-02-21T13:19:21;20.55;;;13.27;;
46607;SDS011;32330;51.936;7.184;2023-02-21T13:21:53;17.10;;;12.02;;
46607;SDS011;32330;51.936;7.184;2023-02-21T13:25:05;14.48;;;11.15;;
46607;SDS011;32330;51.936;7.184;2023-02-21T13:27:52;18.25;;;11.43;;
46607;SDS011;32330;51.936;7.184;2023-02-21T13:30:24;14.77;;;11.10;;
46607;SDS011;32330;51.936;7.184;2023-02-21T13:33:00;15.43;;;11.75;;
46607;SDS011;32330;51.936;7.184;2023-02-21T13:35:30;13.73;;;11.18;;
46607;SDS011;32330;51.936;7.184;2023-02-21T13:37:59;18.05;;;11.88;;
46607;SDS011;32330;51.936;7.184;2023-02-21T13:40:32;14.55;;;10.65;;
46607;SDS011;32330;51.936;7.184;2023-02-21T13:43:04;19.83;;;12.85;;
46607;SDS011;32330;51.936;7.184;2023-02-21T13:45:35;17.75;;;13.05;;
46607;SDS011;32330;51.936;7.184;2023-02-21T13:48:17;15.75;;;12.15;;
46607;SDS011;32330;51.936;7.184;2023-02-21T13:50:51;16.23;;;11.73;;
46607;SDS011;32330;51.936;7.184;2023-02-21T13:53:20;17.23;;;12.82;;
46607;SDS011;32330;51.936;7.184;2023-02-21T13:58:45;21.33;;;15.30;;
46607;SDS011;32330;51.936;7.184;2023-02-21T14:10:24;17.13;;;12.45;;
46607;SDS011;32330;51.936;7.184;2023-02-21T14:12:56;16.27;;;12.57;;
46607;SDS011;32330;51.936;7.184;2023-02-21T14:15:39;17.50;;;12.70;;
46607;SDS011;32330;51.936;7.184;2023-02-21T14:18:19;18.95;;;13.57;;
46607;SDS011;32330;51.936;7.184;2023-02-21T14:20:50;17.73;;;13.63;;
46607;SDS011;32330;51.936;7.184;2023-02-21T14:23:23;17.63;;;13.80;;
46607;SDS011;32330;51.936;7.184;2023-02-21T14:25:58;18.35;;;14.10;;
46607;SDS011;32330;51.936;7.184;2023-02-21T14:31:48;16.85;;;13.18;;
46607;SDS011;32330;51.936;7.184;2023-02-21T14:34:24;20.13;;;13.60;;
46607;SDS011;32330;51.936;7.184;2023-02-21T14:36:55;18.77;;;15.32;;
46607;SDS011;32330;51.936;7.184;2023-02-21T14:42:07;17.23;;;12.93;;
46607;SDS011;32330;51.936;7.184;2023-02-21T14:44:52;17.33;;;13.50;;
46607;SDS011;32330;51.936;7.184;2023-02-21T14:47:37;20.00;;;15.18;;
46607;SDS011;32330;51.936;7.184;2023-02-21T14:50:19;21.10;;;16.27;;
46607;SDS011;32330;51.936;7.184;2023-02-21T14:56:15;23.13;;;16.50;;
46607;SDS011;32330;51.936;7.184;2023-02-21T14:59:17;22.13;;;15.88;;
46607;SDS011;32330;51.936;7.184;2023-02-21T15:01:57;23.40;;;15.85;;
46607;SDS011;32330;51.936;7.184;2023-02-21T15:04:33;21.70;;;15.13;;
46607;SDS011;32330;51.936;7.184;2023-02-21T15:07:09;20.65;;;15.98;;
46607;SDS011;32330;51.936;7.184;2023-02-21T15:09:43;20.67;;;15.95;;
46607;SDS011;32330;51.936;7.184;2023-02-21T15:12:15;21.10;;;16.83;;
46607;SDS011;32330;51.936;7.184;2023-02-21T15:14:46;20.80;;;16.02;;
46607;SDS011;32330;51.936;7.184;2023-02-21T15:17:17;22.27;;;17.20;;
46607;SDS011;32330;51.936;7.184;2023-02-21T15:19:46;23.40;;;16.70;;
46607;SDS011;32330;51.936;7.184;2023-02-21T15:22:29;20.45;;;16.10;;
46607;SDS011;32330;51.936;7.184;2023-02-21T15:24:57;22.15;;;17.00;;
46607;SDS011;32330;51.936;7.184;2023-02-21T15:27:51;18.45;;;14.98;;
46607;SDS011;32330;51.936;7.184;2023-02-21T15:30:23;21.25;;;16.63;;
46607;SDS011;32330;51.936;7.184;2023-02-21T15:32:53;22.50;;;16.00;;
46607;SDS011;32330;51.936;7.184;2023-02-21T15:35:24;21.43;;;16.40;;
46607;SDS011;32330;51.936;7.184;2023-02-21T15:37:54;26.60;;;18.73;;
46607;SDS011;32330;51.936;7.184;2023-02-21T15:40:23;25.27;;;19.42;;
46607;SDS011;32330;51.936;7.184;2023-02-21T15:42:53;22.65;;;17.63;;
46607;SDS011;32330;51.936;7.184;2023-02-21T15:45:21;21.73;;;16.95;;
46607;SDS011;32330;51.936;7.184;2023-02-21T15:47:52;28.02;;;19.55;;
46607;SDS011;32330;51.936;7.184;2023-02-21T15:50:24;27.05;;;20.65;;
46607;SDS011;32330;51.936;7.184;2023-02-21T15:52:56;24.13;;;18.80;;
46607;SDS011;32330;51.936;7.184;2023-02-21T15:55:41;26.85;;;19.75;;
46607;SDS011;32330;51.936;7.184;2023-02-21T15:58:15;40.45;;;28.40;;
46607;SDS011;32330;51.936;7.184;2023-02-21T16:00:46;58.38;;;41.15;;
46607;SDS011;32330;51.936;7.184;2023-02-21T16:03:27;41.63;;;31.58;;
46607;SDS011;32330;51.936;7.184;2023-02-21T16:06:07;41.92;;;33.72;;
46607;SDS011;32330;51.936;7.184;2023-02-21T16:08:49;47.40;;;35.83;;
46607;SDS011;32330;51.936;7.184;2023-02-21T16:11:38;28.65;;;21.52;;
46607;SDS011;32330;51.936;7.184;2023-02-21T16:14:19;24.52;;;18.88;;
46607;SDS011;32330;51.936;7.184;2023-02-21T16:19:20;21.05;;;16.25;;
46607;SDS011;32330;51.936;7.184;2023-02-21T16:21:48;22.08;;;16.60;;
46607;SDS011;32330;51.936;7.184;2023-02-21T16:24:26;24.17;;;17.70;;
46607;SDS011;32330;51.936;7.184;2023-02-21T16:27:00;21.15;;;15.60;;
46607;SDS011;32330;51.936;7.184;2023-02-21T16:29:30;29.17;;;22.75;;
46607;SDS011;32330;51.936;7.184;2023-02-21T16:31:57;32.67;;;25.75;;
46607;SDS011;32330;51.936;7.184;2023-02-21T16:34:24;30.73;;;24.20;;
46607;SDS011;32330;51.936;7.184;2023-02-21T16:36:59;33.67;;;26.10;;
46607;SDS011;32330;51.936;7.184;2023-02-21T16:39:28;31.13;;;24.90;;
46607;SDS011;32330;51.936;7.184;2023-02-21T16:41:55;30.35;;;20.95;;
46607;SDS011;32330;51.936;7.184;2023-02-21T16:44:23;25.65;;;20.55;;
46607;SDS011;32330;51.936;7.184;2023-02-21T16:46:51;27.85;;;22.05;;
46607;SDS011;32330;51.936;7.184;2023-02-21T16:49:18;26.75;;;21.60;;
46607;SDS011;32330;51.936;7.184;2023-02-21T16:51:46;28.20;;;20.65;;
46607;SDS011;32330;51.936;7.184;2023-02-21T16:54:13;29.30;;;20.77;;
46607;SDS011;32330;51.936;7.184;2023-02-21T16:56:41;32.80;;;25.48;;
46607;SDS011;32330;51.936;7.184;2023-02-21T16:59:12;31.35;;;23.65;;
46607;SDS011;32330;51.936;7.184;2023-02-21T17:01:41;29.30;;;22.27;;
46607;SDS011;32330;51.936;7.184;2023-02-21T17:04:12;27.33;;;21.23;;
46607;SDS011;32330;51.936;7.184;2023-02-21T17:06:41;30.58;;;21.55;;
46607;SDS011;32330;51.936;7.184;2023-02-21T17:09:14;30.50;;;21.40;;
46607;SDS011;32330;51.936;7.184;2023-02-21T17:11:44;28.48;;;23.08;;
46607;SDS011;32330;51.936;7.184;2023-02-21T17:14:11;26.70;;;22.65;;
46607;SDS011;32330;51.936;7.184;2023-02-21T17:16:39;32.67;;;24.83;;
46607;SDS011;32330;51.936;7.184;2023-02-21T17:19:11;25.65;;;21.40;;
46607;SDS011;32330;51.936;7.184;2023-02-21T17:21:38;27.80;;;21.17;;
46607;SDS011;32330;51.936;7.184;2023-02-21T17:24:06;29.52;;;21.98;;
46607;SDS011;32330;51.936;7.184;2023-02-21T17:26:33;39.85;;;30.13;;
46607;SDS011;32330;51.936;7.184;2023-02-21T17:29:01;36.78;;;27.08;;
46607;SDS011;32330;51.936;7.184;2023-02-21T17:31:30;28.75;;;21.13;;
46607;SDS011;32330;51.936;7.184;2023-02-21T17:33:57;26.00;;;18.52;;
46607;SDS011;32330;51.936;7.184;2023-02-21T17:36:27;31.60;;;22.98;;
46607;SDS011;32330;51.936;7.184;2023-02-21T17:38:54;31.15;;;25.20;;
46607;SDS011;32330;51.936;7.184;2023-02-21T17:41:22;27.48;;;21.83;;
46607;SDS011;32330;51.936;7.184;2023-02-21T17:43:50;26.27;;;22.42;;
46607;SDS011;32330;51.936;7.184;2023-02-21T17:46:18;28.77;;;24.23;;
46607;SDS011;32330;51.936;7.184;2023-02-21T17:48:45;24.88;;;19.33;;
46607;SDS011;32330;51.936;7.184;2023-02-21T17:51:16;24.40;;;18.52;;
46607;SDS011;32330;51.936;7.184;2023-02-21T17:53:46;28.02;;;20.83;;
46607;SDS011;32330;51.936;7.184;2023-02-21T17:56:17;26.67;;;20.08;;
46607;SDS011;32330;51.936;7.184;2023-02-21T17:58:46;28.77;;;20.65;;
46607;SDS011;32330;51.936;7.184;2023-02-21T18:01:14;27.77;;;21.52;;
46607;SDS011;32330;51.936;7.184;2023-02-21T18:03:43;27.30;;;20.88;;
46607;SDS011;32330;51.936;7.184;2023-02-21T18:06:11;23.88;;;19.23;;
46607;SDS011;32330;51.936;7.184;2023-02-21T18:08:38;25.27;;;20.35;;
46607;SDS011;32330;51.936;7.184;2023-02-21T18:13:39;32.35;;;22.85;;
46607;SDS011;32330;51.936;7.184;2023-02-21T18:16:06;33.13;;;25.02;;
46607;SDS011;32330;51.936;7.184;2023-02-21T18:18:34;34.08;;;25.58;;
46607;SDS011;32330;51.936;7.184;2023-02-21T18:21:01;34.75;;;25.35;;
46607;SDS011;32330;51.936;7.184;2023-02-21T18:23:29;33.35;;;25.55;;
46607;SDS011;32330;51.936;7.184;2023-02-21T18:25:56;32.97;;;24.60;;
46607;SDS011;32330;51.936;7.184;2023-02-21T18:28:25;37.70;;;26.60;;
46607;SDS011;32330;51.936;7.184;2023-02-21T18:30:53;32.83;;;25.90;;
46607;SDS011;32330;51.936;7.184;2023-02-21T18:33:21;48.40;;;38.03;;
46607;SDS011;32330;51.936;7.184;2023-02-21T18:35:51;41.80;;;32.50;;
46607;SDS011;32330;51.936;7.184;2023-02-21T18:38:18;39.72;;;29.70;;
46607;SDS011;32330;51.936;7.184;2023-02-21T18:40:45;37.83;;;27.70;;
46607;SDS011;32330;51.936;7.184;2023-02-21T18:43:14;36.95;;;27.13;;
46607;SDS011;32330;51.936;7.184;2023-02-21T18:45:46;38.22;;;26.65;;
46607;SDS011;32330;51.936;7.184;2023-02-21T18:48:14;36.50;;;27.05;;
46607;SDS011;32330;51.936;7.184;2023-02-21T18:50:42;43.72;;;29.85;;
46607;SDS011;32330;51.936;7.184;2023-02-21T18:53:10;41.08;;;28.75;;
46607;SDS011;32330;51.936;7.184;2023-02-21T18:55:37;46.22;;;30.85;;
46607;SDS011;32330;51.936;7.184;2023-02-21T18:58:06;47.75;;;33.47;;
46607;SDS011;32330;51.936;7.184;2023-02-21T19:00:33;64.43;;;46.78;;
46607;SDS011;32330;51.936;7.184;2023-02-21T19:03:03;52.53;;;36.67;;
46607;SDS011;32330;51.936;7.184;2023-02-21T19:05:31;56.28;;;36.55;;
46607;SDS011;32330;51.936;7.184;2023-02-21T19:07:58;56.83;;;39.03;;
46607;SDS011;32330;51.936;7.184;2023-02-21T19:10:26;59.95;;;41.58;;
46607;SDS011;32330;51.936;7.184;2023-02-21T19:12:55;61.47;;;41.25;;
46607;SDS011;32330;51.936;7.184;2023-02-21T19:15:23;67.88;;;44.35;;
46607;SDS011;32330;51.936;7.184;2023-02-21T19:17:50;59.63;;;40.35;;
46607;SDS011;32330;51.936;7.184;2023-02-21T19:20:19;65.03;;;44.28;;
46607;SDS011;32330;51.936;7.184;2023-02-21T19:22:46;62.30;;;43.58;;
46607;SDS011;32330;51.936;7.184;2023-02-21T19:25:13;58.58;;;40.67;;
46607;SDS011;32330;51.936;7.184;2023-02-21T19:27:41;61.75;;;42.47;;
46607;SDS011;32330;51.936;7.184;2023-02-21T19:30:09;61.28;;;39.35;;
46607;SDS011;32330;51.936;7.184;2023-02-21T19:32:37;60.63;;;43.10;;
46607;SDS011;32330;51.936;7.184;2023-02-21T19:35:04;59.83;;;40.08;;
46607;SDS011;32330;51.936;7.184;2023-02-21T19:37:34;58.85;;;40.90;;
46607;SDS011;32330;51.936;7.184;2023-02-21T19:40:03;62.30;;;40.20;;
46607;SDS011;32330;51.936;7.184;2023-02-21T19:42:32;64.47;;;44.95;;
46607;SDS011;32330;51.936;7.184;2023-02-21T19:44:59;60.95;;;42.75;;
46607;SDS011;32330;51.936;7.184;2023-02-21T19:47:26;64.20;;;43.47;;
46607;SDS011;32330;51.936;7.184;2023-02-21T19:49:53;67.30;;;44.92;;
46607;SDS011;32330;51.936;7.184;2023-02-21T19:52:20;63.38;;;43.20;;
46607;SDS011;32330;51.936;7.184;2023-02-21T19:54:48;65.38;;;41.88;;
46607;SDS011;32330;51.936;7.184;2023-02-21T19:57:15;68.40;;;43.47;;
46607;SDS011;32330;51.936;7.184;2023-02-21T19:59:42;65.53;;;41.38;;
46607;SDS011;32330;51.936;7.184;2023-02-21T20:02:09;64.82;;;42.75;;
46607;SDS011;32330;51.936;7.184;2023-02-21T20:04:37;71.38;;;46.33;;
46607;SDS011;32330;51.936;7.184;2023-02-21T20:07:05;75.38;;;48.20;;
46607;SDS011;32330;51.936;7.184;2023-02-21T20:09:32;70.20;;;45.50;;
46607;SDS011;32330;51.936;7.184;2023-02-21T20:12:00;71.32;;;46.72;;
46607;SDS011;32330;51.936;7.184;2023-02-21T20:14:27;74.50;;;46.38;;